Ashwood, Oregon
Current Conditions -  °F | °C
As of 1:35 AM on Thursday 23 Oct 2014 (Local Time) from KS39 Reporting Station
Overcast Overcast  
Wind Chill: 14°   Ceiling: 6000
Heat Index: 14°   Visibility: 8mi
Dew Point:   Wind: 9mph
Humidity: 63%   Direction: 200°SSW
Pressure: 29.82"   Gusts: 15mph
Location:  44.73°N, 120.76°W
Report Text: KS39 230835Z AUTO 20008G13KT 8SM SCT043 BKN060 OVC090 14/07 A2982 RMK AO2
Loading
Personal Weather Stations






























Interactive Weather Map
Tropical Storm Tracking
New forecast layout! Learn more

10-Day Weather Forecast

Advertisements
Track Severe Weather on mobile